Time;durP1;ratioP1;P1;durP2;ratioP2;P2;SDS_P1;SDS_P2;PMS_P1;PMS_P2;Temp;Humidity;BMP_temperature;BMP_pressure;BME280_temperature;BME280_humidity;BME280_pressure;Samples;Min_cycle;Max_cycle;Signal;HPM_P1;HPM_P2
2022/04/25 06:08:00;;;;;;;8.07;3.07;;;13.60;99.90;;;;;;4870552;29;20219;-72
2022/04/25 06:10:27;;;;;;;5.27;3.00;;;13.40;99.90;;;;;;4878851;29;20214;-80
2022/04/25 06:12:55;;;;;;;6.53;3.20;;;13.00;99.90;;;;;;4880961;29;20323;-79
2022/04/25 06:15:25;;;;;;;7.93;3.43;;;12.70;99.90;;;;;;4880503;29;20219;-73
2022/04/25 06:17:52;;;;;;;4.43;2.80;;;12.10;99.90;;;;;;4880725;29;20218;-77
2022/04/25 06:20:19;;;;;;;5.13;3.10;;;12.30;99.90;;;;;;4880108;29;20212;-72
2022/04/25 06:22:52;;;;;;;4.97;3.20;;;12.40;99.90;;;;;;4880225;29;20245;-71
2022/04/25 06:25:21;;;;;;;5.40;3.10;;;12.30;99.90;;;;;;4881366;29;20211;-71
2022/04/25 06:27:48;;;;;;;6.23;3.20;;;12.50;99.90;;;;;;4880681;29;20244;-78
2022/04/25 06:30:15;;;;;;;6.73;2.90;;;12.60;99.90;;;;;;4880667;29;20211;-78
2022/04/25 06:32:41;;;;;;;8.07;3.87;;;12.50;99.90;;;;;;4879954;29;20664;-83
2022/04/25 06:35:11;;;;;;;8.13;3.40;;;13.00;99.90;;;;;;4880444;29;20222;-79
2022/04/25 06:37:38;;;;;;;7.67;3.20;;;13.50;99.90;;;;;;4881365;29;20214;-71
2022/04/25 06:40:06;;;;;;;7.63;3.20;;;14.10;99.90;;;;;;4880840;29;20212;-71
2022/04/25 06:42:34;;;;;;;7.27;2.90;;;14.50;99.90;;;;;;4880051;29;20281;-71
2022/04/25 06:45:01;;;;;;;8.17;3.50;;;14.90;99.90;;;;;;4880612;29;20703;-72
2022/04/25 06:47:28;;;;;;;5.30;3.23;;;15.20;99.90;;;;;;4876589;29;20211;-82
2022/04/25 06:49:55;;;;;;;6.57;3.20;;;15.30;99.90;;;;;;4879655;29;20203;-81
2022/04/25 06:52:22;;;;;;;5.60;3.27;;;15.20;99.90;;;;;;4873886;29;20212;-78
2022/04/25 06:54:49;;;;;;;6.53;3.10;;;15.00;99.90;;;;;;4862314;29;20220;-71
2022/04/25 06:57:16;;;;;;;7.20;3.40;;;14.80;99.90;;;;;;4869859;29;20222;-81
2022/04/25 06:59:44;;;;;;;7.10;3.17;;;14.50;99.90;;;;;;4879460;29;20218;-71
2022/04/25 07:02:11;;;;;;;9.37;3.57;;;14.30;99.90;;;;;;4879248;29;20238;-83
2022/04/25 07:04:38;;;;;;;5.30;2.90;;;13.90;99.90;;;;;;4879171;29;20231;-82
2022/04/25 07:07:05;;;;;;;7.93;3.30;;;13.60;99.90;;;;;;4880357;29;20692;-79
2022/04/25 07:09:33;;;;;;;6.37;3.17;;;13.30;99.90;;;;;;4881220;29;20676;-80
2022/04/25 07:12:00;;;;;;;6.80;3.43;;;13.00;99.90;;;;;;4882729;29;20215;-72
2022/04/25 07:14:28;;;;;;;7.80;3.57;;;12.50;99.90;;;;;;4871977;29;20235;-75
2022/04/25 07:17:02;;;;;;;6.53;3.03;;;12.40;99.90;;;;;;4880377;29;20238;-83
2022/04/25 07:19:29;;;;;;;8.40;3.87;;;12.50;99.90;;;;;;4879067;29;20850;-81
2022/04/25 07:30:10;;;;;;;8.27;4.30;;;12.30;99.90;;;;;;4877285;29;20238;-70
2022/04/25 07:32:40;;;;;;;6.90;3.33;;;12.30;99.90;;;;;;4878160;29;20221;-71
2022/04/25 07:35:08;;;;;;;7.97;3.57;;;12.20;99.90;;;;;;4879037;29;20211;-70
2022/04/25 07:37:34;;;;;;;6.63;3.80;;;12.30;99.90;;;;;;4878863;29;20616;-81
2022/04/25 07:40:02;;;;;;;8.33;4.23;;;12.50;99.90;;;;;;4875065;29;20209;-71
2022/04/25 07:42:29;;;;;;;5.43;3.50;;;12.40;99.90;;;;;;4878049;29;20665;-72
2022/04/25 07:44:56;;;;;;;8.27;3.30;;;12.60;99.90;;;;;;4876677;29;20227;-71
2022/04/25 07:47:23;;;;;;;8.17;3.87;;;12.40;99.90;;;;;;4878601;29;20230;-81
2022/04/25 07:49:51;;;;;;;6.60;3.40;;;12.40;99.90;;;;;;4878898;29;20207;-73
2022/04/25 07:52:18;;;;;;;9.47;4.00;;;12.50;99.90;;;;;;4878331;29;20207;-80
2022/04/25 07:54:45;;;;;;;6.90;3.70;;;12.20;99.90;;;;;;4878301;29;20641;-77
2022/04/25 07:57:12;;;;;;;7.17;3.90;;;12.30;99.90;;;;;;4877929;29;20213;-79
2022/04/25 07:59:39;;;;;;;6.20;3.93;;;12.20;99.90;;;;;;4879129;29;20211;-75
2022/04/25 08:02:05;;;;;;;9.20;4.83;;;12.40;99.90;;;;;;4878500;29;20237;-78
2022/04/25 08:04:32;;;;;;;6.37;3.87;;;12.60;99.90;;;;;;4877652;29;20227;-80
2022/04/25 08:07:00;;;;;;;7.20;3.53;;;12.90;99.90;;;;;;4879032;29;20696;-78
2022/04/25 08:09:27;;;;;;;7.40;4.00;;;13.30;99.90;;;;;;4877671;29;20207;-72
2022/04/25 08:17:56;;;;;;;6.93;3.70;;;13.10;99.90;;;;;;4878872;29;20221;-79
2022/04/25 08:20:11;;;;;;;8.77;3.90;;;13.20;99.90;;;;;;4877928;29;20668;-80
2022/04/25 08:22:40;;;;;;;9.07;4.13;;;13.40;99.90;;;;;;4877417;29;20235;-75
2022/04/25 08:25:09;;;;;;;6.83;3.63;;;13.60;99.90;;;;;;4877880;29;20211;-79
2022/04/25 08:27:35;;;;;;;5.93;3.80;;;13.50;99.90;;;;;;4878251;29;20211;-81
2022/04/25 08:30:02;;;;;;;8.33;3.80;;;13.50;99.90;;;;;;4878289;29;20203;-78
2022/04/25 08:32:33;;;;;;;7.93;3.40;;;13.40;99.90;;;;;;4871215;29;20214;-78
2022/04/25 08:35:00;;;;;;;6.47;3.47;;;13.20;99.90;;;;;;4873797;29;20200;-75
2022/04/25 08:37:27;;;;;;;5.33;3.57;;;13.10;99.90;;;;;;4877204;29;20274;-74
2022/04/25 08:39:55;;;;;;;7.27;3.70;;;13.60;99.90;;;;;;4877136;29;20207;-79
2022/04/25 08:42:22;;;;;;;8.63;3.83;;;14.50;99.90;;;;;;4876945;29;20246;-78
2022/04/25 08:44:52;;;;;;;11.13;4.57;;;15.60;99.90;;;;;;4870020;29;20226;-72
2022/04/25 08:47:18;;;;;;;8.17;4.00;;;16.50;99.90;;;;;;4877284;29;20853;-79
2022/04/25 08:49:47;;;;;;;6.90;4.23;;;17.20;99.90;;;;;;4877371;29;20211;-76
2022/04/25 08:52:14;;;;;;;9.47;4.80;;;17.30;99.80;;;;;;4877909;29;20270;-72
2022/04/25 08:54:42;;;;;;;8.73;4.57;;;17.10;99.80;;;;;;4870003;29;20238;-73
2022/04/25 08:57:11;;;;;;;6.40;3.57;;;16.70;99.90;;;;;;4880462;29;20211;-81
2022/04/25 08:59:38;;;;;;;7.67;4.10;;;16.30;99.90;;;;;;4880115;29;20203;-75
2022/04/25 09:02:06;;;;;;;7.40;4.00;;;16.50;99.90;;;;;;4881209;29;20232;-71
2022/04/25 09:04:33;;;;;;;9.40;4.40;;;16.60;99.80;;;;;;4881812;29;20241;-75
2022/04/25 09:07:00;;;;;;;7.20;4.20;;;16.40;99.90;;;;;;4880526;29;20215;-78
2022/04/25 09:09:27;;;;;;;10.10;4.57;;;17.10;99.60;;;;;;4874082;29;20255;-75
2022/04/25 09:12:10;;;;;;;7.13;4.30;;;17.30;98.90;;;;;;4873785;29;20215;-71
2022/04/25 09:14:39;;;;;;;8.23;4.17;;;17.40;98.70;;;;;;4878245;29;20227;-72
2022/04/25 09:17:06;;;;;;;8.60;4.57;;;17.20;98.40;;;;;;4880894;29;20290;-69
2022/04/25 09:19:33;;;;;;;8.07;4.07;;;17.10;98.90;;;;;;4880760;29;20211;-71
2022/04/25 09:22:00;;;;;;;8.87;4.47;;;17.10;99.30;;;;;;4871414;29;20234;-77
2022/04/25 09:24:28;;;;;;;10.27;4.40;;;17.10;98.80;;;;;;4881127;29;20250;-80
2022/04/25 09:27:11;;;;;;;9.17;4.73;;;17.20;99.10;;;;;;4881216;29;20215;-70
2022/04/25 09:29:42;;;;;;;7.23;4.30;;;17.00;98.50;;;;;;4880401;29;20250;-72
2022/04/25 09:32:13;;;;;;;7.10;4.70;;;16.20;99.50;;;;;;4879611;29;20612;-71
2022/04/25 09:37:43;;;;;;;7.23;3.93;;;15.10;99.90;;;;;;4879536;29;20295;-83
2022/04/25 09:40:10;;;;;;;6.03;3.80;;;14.50;99.90;;;;;;4880085;29;20215;-70
2022/04/25 09:42:37;;;;;;;5.93;3.90;;;14.40;99.90;;;;;;4878801;29;20242;-74
2022/04/25 09:45:06;;;;;;;6.83;4.00;;;14.20;99.90;;;;;;4879254;29;20217;-74
2022/04/25 09:47:34;;;;;;;7.60;3.93;;;14.30;99.90;;;;;;4879296;29;20211;-71
2022/04/25 09:50:03;;;;;;;6.37;3.90;;;14.60;99.90;;;;;;4878936;29;20211;-71
2022/04/25 09:52:31;;;;;;;5.93;3.70;;;15.00;99.90;;;;;;4879213;29;20225;-72
2022/04/25 09:55:12;;;;;;;6.03;3.57;;;15.10;99.90;;;;;;4879511;29;20675;-70
2022/04/25 09:57:39;;;;;;;9.90;3.90;;;14.70;99.90;;;;;;4878038;29;20203;-67
2022/04/25 10:00:09;;;;;;;7.80;4.03;;;14.80;99.90;;;;;;4879467;29;20215;-73
2022/04/25 10:02:39;;;;;;;5.53;3.70;;;15.30;99.90;;;;;;4876723;29;20329;-69
2022/04/25 10:05:15;;;;;;;5.67;3.00;;;15.50;98.70;;;;;;4877352;29;20215;-68
2022/04/25 10:07:43;;;;;;;5.03;2.77;;;15.40;98.70;;;;;;4873849;29;20218;-69
2022/04/25 10:10:11;;;;;;;8.63;3.63;;;14.90;98.60;;;;;;4889265;29;20203;-74
2022/04/25 10:12:38;;;;;;;7.03;3.80;;;14.90;99.90;;;;;;4882062;29;20219;-70
2022/04/25 10:15:07;;;;;;;5.47;3.13;;;15.10;99.90;;;;;;4883396;29;20207;-75
2022/04/25 10:17:38;;;;;;;7.23;3.73;;;15.40;99.60;;;;;;4875842;29;20207;-74
2022/04/25 10:20:06;;;;;;;4.60;3.33;;;15.60;99.10;;;;;;4870707;29;20336;-71
2022/04/25 10:22:35;;;;;;;4.80;3.07;;;15.80;98.40;;;;;;4876042;29;20234;-72
2022/04/25 10:25:03;;;;;;;4.67;2.93;;;15.80;98.40;;;;;;4871660;29;20294;-71
2022/04/25 10:27:33;;;;;;;4.03;2.80;;;15.60;97.80;;;;;;4877348;29;20688;-73
2022/04/25 10:30:07;;;;;;;4.60;2.87;;;15.90;97.30;;;;;;4878444;29;20215;-72
2022/04/25 10:32:36;;;;;;;3.17;2.30;;;15.80;97.50;;;;;;4878192;29;20310;-68
2022/04/25 10:35:04;;;;;;;5.20;2.50;;;15.60;95.50;;;;;;4876994;29;20222;-74
2022/04/25 10:37:33;;;;;;;6.70;2.97;;;15.80;94.60;;;;;;4876592;29;20218;-73
2022/04/25 10:40:02;;;;;;;4.90;2.70;;;15.80;96.20;;;;;;4876358;29;20259;-72
2022/04/25 10:45:13;;;;;;;6.73;2.87;;;15.90;95.70;;;;;;4873213;29;20727;-73
2022/04/25 10:47:58;;;;;;;4.93;3.00;;;16.00;96.70;;;;;;4878408;29;20215;-75
2022/04/25 10:50:26;;;;;;;5.10;3.03;;;15.90;97.00;;;;;;4879204;29;20211;-73
2022/04/25 10:52:54;;;;;;;7.40;3.60;;;16.10;96.70;;;;;;4878423;29;20238;-71
2022/04/25 10:55:23;;;;;;;5.33;2.60;;;16.00;96.50;;;;;;4878297;29;20207;-74
2022/04/25 10:58:26;;;;;;;4.03;2.70;;;16.30;96.00;;;;;;4879150;29;20740;-70
2022/04/25 11:00:57;;;;;;;5.23;2.93;;;16.70;96.10;;;;;;4877415;29;20238;-72
2022/04/25 11:03:28;;;;;;;4.70;2.90;;;17.00;95.20;;;;;;4878748;29;20736;-73
2022/04/25 11:05:56;;;;;;;4.37;2.70;;;17.10;94.90;;;;;;4879256;29;20226;-72
2022/04/25 11:08:33;;;;;;;5.87;3.40;;;16.70;95.90;;;;;;4880077;29;20208;-73
2022/04/25 11:11:08;;;;;;;4.27;2.90;;;16.80;94.70;;;;;;4869790;29;20209;-72
2022/04/25 11:13:36;;;;;;;4.17;2.40;;;16.60;93.50;;;;;;4877125;29;20230;-71
2022/04/25 11:16:17;;;;;;;4.53;2.30;;;16.50;92.60;;;;;;4877656;29;20211;-71
2022/04/25 11:18:45;;;;;;;3.63;2.23;;;16.30;93.20;;;;;;4878286;29;20207;-72
2022/04/25 11:21:14;;;;;;;2.97;1.90;;;16.20;93.50;;;;;;4878324;29;20203;-72
2022/04/25 11:23:49;;;;;;;3.23;2.00;;;16.00;93.20;;;;;;4877470;29;20681;-72
2022/04/25 11:26:56;;;;;;;3.50;1.90;;;15.90;92.90;;;;;;4877298;29;20298;-73
2022/04/25 11:29:23;;;;;;;4.23;2.00;;;16.40;92.50;;;;;;4838930;29;20640;-72
2022/04/25 11:31:50;;;;;;;4.00;2.27;;;16.40;90.80;;;;;;4866199;29;20214;-73
2022/04/25 11:34:22;;;;;;;3.70;2.30;;;16.40;92.20;;;;;;4878502;29;20241;-73
2022/04/25 11:36:50;;;;;;;3.57;2.30;;;16.20;92.80;;;;;;4878400;29;20222;-72
2022/04/25 11:42:06;;;;;;;4.70;2.20;;;16.40;93.50;;;;;;4874366;29;20225;-73
2022/04/25 11:44:34;;;;;;;3.63;2.40;;;16.60;92.80;;;;;;4877544;29;20656;-73
2022/04/25 11:47:02;;;;;;;5.47;2.53;;;16.70;93.80;;;;;;4870359;29;20207;-77
2022/04/25 11:49:32;;;;;;;4.90;2.73;;;16.80;95.20;;;;;;4878074;29;20593;-73
2022/04/25 11:52:01;;;;;;;10.70;3.00;;;17.00;95.50;;;;;;4877632;29;20324;-73
2022/04/25 11:54:32;;;;;;;10.87;3.33;;;17.00;96.80;;;;;;4877490;29;20258;-72
2022/04/25 11:57:01;;;;;;;5.93;3.33;;;16.50;99.90;;;;;;4876093;29;20215;-72
2022/04/25 11:59:28;;;;;;;4.77;3.20;;;16.00;99.90;;;;;;4877331;29;20215;-76
2022/04/25 12:01:55;;;;;;;6.10;3.50;;;16.00;99.90;;;;;;4877666;29;20211;-77
2022/04/25 12:04:24;;;;;;;6.20;3.63;;;15.90;99.90;;;;;;4877219;29;20235;-76
2022/04/25 12:06:54;;;;;;;4.83;3.20;;;15.80;99.90;;;;;;4877468;29;20755;-79
2022/04/25 12:17:39;;;;;;;6.53;2.80;;;14.80;99.90;;;;;;4884988;29;20230;-73
2022/04/25 12:20:09;;;;;;;9.30;3.00;;;14.60;99.90;;;;;;4897021;29;20262;-72
2022/04/25 12:22:39;;;;;;;4.43;2.63;;;14.40;99.90;;;;;;4896916;29;20213;-72
2022/04/25 12:25:16;;;;;;;4.40;2.90;;;13.50;99.90;;;;;;4891800;29;20237;-73
2022/04/25 12:28:05;;;;;;;4.37;2.67;;;13.00;99.90;;;;;;4894957;29;20214;-74
2022/04/25 12:30:44;;;;;;;7.40;3.20;;;13.00;99.90;;;;;;4901291;29;20206;-73
2022/04/25 12:33:13;;;;;;;4.80;2.80;;;13.30;99.90;;;;;;4887844;29;20233;-74
2022/04/25 12:35:40;;;;;;;6.23;3.67;;;13.50;99.90;;;;;;4901733;29;20217;-73
2022/04/25 12:38:10;;;;;;;7.23;4.17;;;13.70;99.90;;;;;;4902482;29;20667;-73
2022/04/25 12:40:56;;;;;;;6.23;3.87;;;13.80;99.90;;;;;;4903057;29;20293;-74
2022/04/25 12:43:49;;;;;;;6.70;3.57;;;13.80;99.90;;;;;;4904099;29;20238;-74
2022/04/25 12:46:25;;;;;;;6.40;3.93;;;13.70;99.90;;;;;;4905116;29;20202;-74
2022/04/25 12:48:56;;;;;;;7.80;4.23;;;13.80;99.90;;;;;;4908022;29;20242;-74
2022/04/25 12:51:34;;;;;;;6.73;3.90;;;13.90;99.90;;;;;;4903916;29;20210;-73
2022/04/25 12:54:03;;;;;;;8.17;4.27;;;13.80;99.90;;;;;;4902598;29;20236;-74
2022/04/25 12:56:32;;;;;;;6.20;3.80;;;13.90;99.90;;;;;;4902477;29;20668;-74
2022/04/25 12:58:59;;;;;;;6.77;3.77;;;13.80;99.90;;;;;;4903124;29;20206;-74
2022/04/25 13:01:31;;;;;;;10.23;3.97;;;13.80;99.90;;;;;;4902962;29;20217;-74
2022/04/25 13:04:17;;;;;;;7.20;4.20;;;14.00;99.90;;;;;;4903514;29;20241;-74
2022/04/25 13:06:44;;;;;;;6.97;4.10;;;13.90;99.90;;;;;;4903264;29;20666;-74
2022/04/25 13:09:13;;;;;;;8.53;4.40;;;13.70;99.90;;;;;;4903028;29;20668;-74
2022/04/25 13:11:40;;;;;;;6.83;4.27;;;13.60;99.90;;;;;;4902577;29;20217;-73
2022/04/25 13:14:07;;;;;;;9.60;4.83;;;13.40;99.90;;;;;;4902816;29;20594;-74
2022/04/25 13:16:34;;;;;;;7.23;4.40;;;13.40;99.90;;;;;;4903203;29;20686;-74
2022/04/25 13:19:01;;;;;;;8.97;5.17;;;13.40;99.90;;;;;;4891298;29;20209;-73
2022/04/25 13:21:28;;;;;;;9.47;4.70;;;13.30;99.90;;;;;;4902903;29;20217;-72
2022/04/25 13:23:55;;;;;;;7.40;4.43;;;13.30;99.90;;;;;;4902424;29;20260;-73
2022/04/25 13:26:23;;;;;;;6.93;4.40;;;13.20;99.90;;;;;;4902002;29;20219;-72
2022/04/25 13:28:50;;;;;;;6.53;4.00;;;13.00;99.90;;;;;;4902870;29;20206;-73
2022/04/25 13:31:17;;;;;;;8.33;4.87;;;12.70;99.90;;;;;;4902698;29;20206;-73
2022/04/25 13:33:44;;;;;;;9.57;4.93;;;12.50;99.90;;;;;;4899763;29;20237;-73
2022/04/25 13:36:11;;;;;;;8.17;4.23;;;12.40;99.90;;;;;;4902852;29;20241;-74
2022/04/25 13:38:38;;;;;;;7.20;3.83;;;12.30;99.90;;;;;;4902652;29;20209;-74
2022/04/25 13:41:05;;;;;;;7.93;3.70;;;12.20;99.90;;;;;;4901954;29;20229;-74
2022/04/25 13:43:33;;;;;;;7.37;4.00;;;12.10;99.90;;;;;;4899731;29;20238;-73
2022/04/25 13:46:01;;;;;;;6.07;4.00;;;12.00;99.90;;;;;;4899736;29;20217;-74
2022/04/25 13:48:29;;;;;;;8.03;3.73;;;12.00;99.90;;;;;;4898952;29;20262;-74
2022/04/25 13:50:55;;;;;;;6.80;4.00;;;11.80;99.90;;;;;;4898537;29;20215;-73
2022/04/25 13:53:23;;;;;;;11.37;4.07;;;11.60;99.90;;;;;;4896470;29;20223;-74
2022/04/25 13:55:50;;;;;;;7.27;3.97;;;11.70;99.90;;;;;;4898530;29;20218;-74
2022/04/25 13:58:17;;;;;;;5.77;3.80;;;11.70;99.90;;;;;;4898335;29;20213;-74
2022/04/25 14:00:45;;;;;;;5.63;3.23;;;11.70;99.90;;;;;;4898830;29;20202;-74
2022/04/25 14:03:12;;;;;;;7.30;3.60;;;11.70;99.90;;;;;;4899379;29;20230;-74
2022/04/25 14:05:41;;;;;;;6.90;3.47;;;11.70;99.90;;;;;;4898142;29;20607;-74
2022/04/25 14:08:09;;;;;;;8.73;4.10;;;11.90;99.90;;;;;;4895365;29;20270;-73
2022/04/25 14:10:38;;;;;;;5.73;3.33;;;12.10;99.90;;;;;;4896571;29;20220;-73
2022/04/25 14:13:06;;;;;;;9.83;3.73;;;12.10;99.90;;;;;;4898229;29;20238;-72
2022/04/25 14:15:34;;;;;;;6.00;3.80;;;12.20;99.90;;;;;;4898118;29;20210;-78
2022/04/25 14:18:02;;;;;;;5.97;3.70;;;12.20;99.90;;;;;;4898106;29;20423;-73
2022/04/25 14:20:30;;;;;;;7.10;3.67;;;12.20;99.90;;;;;;4898624;29;20242;-74
2022/04/25 14:22:58;;;;;;;5.73;3.43;;;12.40;99.90;;;;;;4891161;29;20237;-77
2022/04/25 14:25:26;;;;;;;7.90;3.50;;;12.50;99.90;;;;;;4897202;29;20241;-76
2022/04/25 14:27:53;;;;;;;5.50;2.83;;;12.70;99.90;;;;;;4897713;29;20219;-74
2022/04/25 14:30:24;;;;;;;4.80;3.10;;;12.90;99.90;;;;;;4897711;29;20207;-72
2022/04/25 14:32:51;;;;;;;5.30;3.20;;;13.00;99.90;;;;;;4898152;29;20237;-75
2022/04/25 14:35:19;;;;;;;6.20;3.70;;;13.20;99.90;;;;;;4897765;29;20215;-72
2022/04/25 14:37:46;;;;;;;6.00;3.40;;;13.30;99.90;;;;;;4894568;29;20230;-73
2022/04/25 14:40:14;;;;;;;4.20;2.83;;;13.30;99.90;;;;;;4897174;29;20225;-72
2022/04/25 14:42:41;;;;;;;5.70;2.87;;;13.30;99.90;;;;;;4897672;29;20215;-72
2022/04/25 14:45:09;;;;;;;5.20;2.90;;;13.20;99.90;;;;;;4896511;29;20719;-77
2022/04/25 14:47:36;;;;;;;5.43;3.10;;;13.10;99.90;;;;;;4898407;29;20211;-74
2022/04/25 14:55:33;;;;;;;5.93;2.93;;;12.80;99.90;;;;;;4899120;29;20563;-73
2022/04/25 14:58:01;;;;;;;5.40;2.97;;;12.50;99.90;;;;;;4898564;29;20211;-74
2022/04/25 15:00:27;;;;;;;4.23;3.00;;;12.10;99.90;;;;;;4899119;29;20210;-78
2022/04/25 15:02:54;;;;;;;5.17;3.10;;;12.00;99.90;;;;;;4898694;29;20234;-80
2022/04/25 15:05:21;;;;;;;5.20;2.73;;;12.00;99.90;;;;;;4897557;29;20265;-80
2022/04/25 15:07:50;;;;;;;5.57;3.27;;;11.90;99.90;;;;;;4898157;29;20206;-74
2022/04/25 15:10:16;;;;;;;6.30;2.90;;;11.90;99.90;;;;;;4896961;29;20217;-84
2022/04/25 15:12:44;;;;;;;4.73;3.10;;;11.90;99.90;;;;;;4898025;29;20214;-74
2022/04/25 15:15:12;;;;;;;7.23;3.43;;;11.80;99.90;;;;;;4898808;29;20214;-77
2022/04/25 15:17:39;;;;;;;6.47;3.47;;;11.90;99.90;;;;;;4897981;29;20783;-74
2022/04/25 15:20:07;;;;;;;6.53;3.30;;;11.90;99.90;;;;;;4898556;29;20215;-74
2022/04/25 15:22:34;;;;;;;6.00;3.47;;;11.90;99.90;;;;;;4898412;29;20217;-74
2022/04/25 15:25:03;;;;;;;7.17;3.67;;;11.80;99.90;;;;;;4897681;29;20242;-78
2022/04/25 15:27:30;;;;;;;5.03;3.20;;;11.70;99.90;;;;;;4899090;29;20741;-75
2022/04/25 15:29:57;;;;;;;5.80;3.83;;;11.80;99.90;;;;;;4898464;29;20286;-75
2022/04/25 15:32:24;;;;;;;7.93;3.60;;;11.80;99.90;;;;;;4896927;29;20206;-75
2022/04/25 15:34:50;;;;;;;6.23;3.57;;;11.60;99.90;;;;;;4898080;29;20606;-74
2022/04/25 15:37:17;;;;;;;6.70;3.70;;;11.40;99.90;;;;;;4898388;29;20210;-75
2022/04/25 15:39:44;;;;;;;8.67;3.37;;;11.40;99.90;;;;;;4898505;29;20214;-72
2022/04/25 15:42:13;;;;;;;5.67;3.47;;;11.40;99.90;;;;;;4898363;29;20215;-75
2022/04/25 15:44:40;;;;;;;8.40;3.60;;;11.30;99.90;;;;;;4897787;29;20238;-76
2022/04/25 15:47:08;;;;;;;6.27;3.60;;;11.20;99.90;;;;;;4898395;29;20206;-74
2022/04/25 15:49:35;;;;;;;6.30;3.43;;;11.30;99.90;;;;;;4898229;29;20278;-70
2022/04/25 15:52:01;;;;;;;5.60;3.50;;;11.00;99.90;;;;;;4898243;29;20217;-76
2022/04/25 15:59:58;;;;;;;7.37;3.80;;;10.70;99.90;;;;;;4898070;29;20217;-70
2022/04/25 16:02:25;;;;;;;5.23;3.60;;;10.50;99.90;;;;;;4897651;29;20222;-69
2022/04/25 16:04:51;;;;;;;6.77;3.93;;;10.40;99.90;;;;;;4896339;29;20667;-75
2022/04/25 16:07:20;;;;;;;5.70;3.67;;;10.50;99.90;;;;;;4897739;29;20210;-74
2022/04/25 16:09:48;;;;;;;6.67;3.83;;;10.50;99.90;;;;;;4897874;29;20222;-73
2022/04/25 16:12:16;;;;;;;8.23;3.97;;;10.50;99.90;;;;;;4890705;29;20225;-73
2022/04/25 16:14:43;;;;;;;10.70;4.60;;;10.60;99.90;;;;;;4896735;29;20236;-69
2022/04/25 16:17:10;;;;;;;8.83;4.13;;;10.70;99.90;;;;;;4897316;29;20580;-69
2022/04/25 16:19:38;;;;;;;7.40;4.37;;;10.70;99.90;;;;;;4897532;29;20217;-69
2022/04/25 16:22:06;;;;;;;6.63;4.10;;;10.60;99.90;;;;;;4897495;29;20257;-69
2022/04/25 16:24:33;;;;;;;8.03;4.33;;;10.40;99.90;;;;;;4896998;29;20325;-69
2022/04/25 16:26:59;;;;;;;8.30;4.73;;;10.30;99.90;;;;;;4894439;29;20198;-68
2022/04/25 16:29:28;;;;;;;6.63;4.60;;;10.30;99.90;;;;;;4883292;29;20211;-68
2022/04/25 16:31:54;;;;;;;7.77;3.93;;;10.20;99.90;;;;;;4886523;29;20567;-69
2022/04/25 16:34:22;;;;;;;7.33;4.03;;;10.20;99.90;;;;;;4896224;29;20643;-70
2022/04/25 16:36:51;;;;;;;6.97;3.83;;;10.10;99.90;;;;;;4878154;29;20211;-70
2022/04/25 16:39:19;;;;;;;6.40;3.77;;;10.00;99.90;;;;;;4877915;29;20296;-69
2022/04/25 16:41:46;;;;;;;9.07;4.60;;;9.90;99.90;;;;;;4895767;29;20214;-69
2022/04/25 16:44:13;;;;;;;10.80;4.70;;;10.00;99.90;;;;;;4885451;29;20223;-69
2022/04/25 16:46:42;;;;;;;5.10;3.43;;;10.00;99.90;;;;;;4877471;29;20221;-69
2022/04/25 16:49:09;;;;;;;6.13;4.07;;;10.00;99.90;;;;;;4887372;29;20202;-68
2022/04/25 16:51:36;;;;;;;7.23;3.50;;;10.10;99.90;;;;;;4896968;29;20668;-70
2022/04/25 16:54:04;;;;;;;7.20;3.63;;;10.10;99.90;;;;;;4897004;29;20238;-69
2022/04/25 16:56:31;;;;;;;7.73;3.77;;;10.10;99.90;;;;;;4896776;29;20221;-68
2022/04/25 16:58:58;;;;;;;6.83;3.70;;;10.10;99.90;;;;;;4897245;29;20292;-69
2022/04/25 17:01:25;;;;;;;6.03;3.57;;;10.10;99.90;;;;;;4882320;29;20676;-68
2022/04/25 17:03:53;;;;;;;7.20;3.50;;;10.10;99.90;;;;;;4896910;29;20231;-70
2022/04/25 17:06:20;;;;;;;6.40;3.87;;;10.10;99.90;;;;;;4897130;29;20238;-69
2022/04/25 17:08:47;;;;;;;6.13;3.30;;;10.10;99.90;;;;;;4897222;29;20207;-68
2022/04/25 17:11:14;;;;;;;8.47;3.33;;;10.20;99.90;;;;;;4892453;29;20565;-69
2022/04/25 17:13:40;;;;;;;4.87;2.93;;;10.10;99.90;;;;;;4876564;29;20724;-70
2022/04/25 17:16:08;;;;;;;6.33;3.33;;;10.10;99.90;;;;;;4878062;29;20212;-69
2022/04/25 17:18:35;;;;;;;5.40;3.70;;;10.10;99.90;;;;;;4880046;29;20219;-70
2022/04/25 17:21:04;;;;;;;5.60;3.47;;;10.10;99.90;;;;;;4887739;29;20553;-69
2022/04/25 17:23:30;;;;;;;7.70;3.63;;;10.10;99.90;;;;;;4898916;29;20853;-69
2022/04/25 17:25:57;;;;;;;6.57;3.43;;;10.00;99.90;;;;;;4898569;29;20578;-69
2022/04/25 17:28:24;;;;;;;5.90;3.23;;;10.00;99.90;;;;;;4899443;29;20218;-68
2022/04/25 17:30:51;;;;;;;5.77;3.27;;;10.00;99.90;;;;;;4899298;29;20682;-68
2022/04/25 17:36:04;;;;;;;6.30;3.60;;;10.20;99.90;;;;;;4898059;29;20214;-69
